createdAt,value
2018-03-15T00:01:00.225Z,6.00
2018-03-15T00:03:27.071Z,5.87
2018-03-15T00:05:54.190Z,5.90
2018-03-15T00:08:21.025Z,5.77
2018-03-15T00:10:47.835Z,5.40
2018-03-15T00:13:14.703Z,5.80
2018-03-15T00:15:41.545Z,5.82
2018-03-15T00:18:08.816Z,6.28
2018-03-15T00:20:35.965Z,5.40
2018-03-15T00:23:03.107Z,5.50
2018-03-15T00:25:29.937Z,5.85
2018-03-15T00:27:56.800Z,5.20
2018-03-15T00:30:23.678Z,5.53
2018-03-15T00:32:50.520Z,5.05
2018-03-15T00:35:17.323Z,5.65
2018-03-15T00:37:44.184Z,5.60
2018-03-15T00:40:11.004Z,5.40
2018-03-15T00:42:37.828Z,5.20
2018-03-15T00:45:04.635Z,4.80
2018-03-15T00:47:31.455Z,5.60
2018-03-15T00:49:58.267Z,5.90
2018-03-15T00:52:25.128Z,5.40
2018-03-15T00:54:51.947Z,5.22
2018-03-15T00:57:19.015Z,5.60
2018-03-15T00:59:46.168Z,5.35
2018-03-15T01:02:13.323Z,5.00
2018-03-15T01:04:40.189Z,5.50
2018-03-15T01:07:07.002Z,5.12
2018-03-15T01:09:33.868Z,5.80
2018-03-15T01:12:00.999Z,5.35
2018-03-15T01:14:27.844Z,5.03
2018-03-15T01:16:54.987Z,5.40
2018-03-15T01:19:21.800Z,5.20
2018-03-15T01:21:48.618Z,5.20
2018-03-15T01:24:15.489Z,5.20
2018-03-15T01:26:42.332Z,5.20
2018-03-15T01:29:09.185Z,5.18
2018-03-15T01:31:36.061Z,4.93
2018-03-15T01:34:02.891Z,5.03
2018-03-15T01:36:29.715Z,5.03
2018-03-15T01:38:56.596Z,4.90
2018-03-15T01:41:23.419Z,5.10
2018-03-15T01:43:50.293Z,4.50
2018-03-15T01:46:17.138Z,4.95
2018-03-15T01:48:44.013Z,5.28
2018-03-15T01:51:10.852Z,4.80
2018-03-15T01:53:37.715Z,5.63
2018-03-15T01:56:04.526Z,5.20
2018-03-15T01:58:31.389Z,5.15
2018-03-15T02:00:58.207Z,5.30
2018-03-15T02:03:25.192Z,5.25
2018-03-15T02:05:52.028Z,5.32
2018-03-15T02:08:18.855Z,5.40
2018-03-15T02:10:45.760Z,5.30
2018-03-15T02:13:12.904Z,5.50
2018-03-15T02:15:40.056Z,5.60
2018-03-15T02:18:06.900Z,5.60
2018-03-15T02:20:33.704Z,5.20
2018-03-15T02:23:00.575Z,5.82
2018-03-15T02:25:27.727Z,5.50
2018-03-15T02:27:54.590Z,5.50
2018-03-15T02:30:21.723Z,5.82
2018-03-15T02:32:48.588Z,5.80
2018-03-15T02:35:15.717Z,5.80
2018-03-15T02:37:42.573Z,6.20
2018-03-15T02:40:09.395Z,6.30
2018-03-15T02:42:36.274Z,5.80
2018-03-15T02:45:03.111Z,6.43
2018-03-15T02:47:29.959Z,6.22
2018-03-15T02:49:56.799Z,6.00
2018-03-15T02:52:23.615Z,6.00
2018-03-15T02:54:50.481Z,6.10
2018-03-15T02:57:17.352Z,6.12
2018-03-15T02:59:44.560Z,6.70
2018-03-15T03:02:11.371Z,6.87
2018-03-15T03:04:38.219Z,6.85
2018-03-15T03:07:05.075Z,7.05
2018-03-15T03:09:32.243Z,6.82
2018-03-15T03:11:59.387Z,8.10
2018-03-15T03:14:26.252Z,8.50
2018-03-15T03:16:53.105Z,8.77
2018-03-15T03:19:19.944Z,8.17
2018-03-15T03:21:46.771Z,8.38
2018-03-15T03:24:13.911Z,8.93
2018-03-15T03:26:40.955Z,9.10
2018-03-15T03:29:07.783Z,8.85
2018-03-15T03:31:34.604Z,9.20
2018-03-15T03:34:01.439Z,9.35
2018-03-15T03:36:28.255Z,10.05
2018-03-15T03:38:55.121Z,9.90
2018-03-15T03:41:22.041Z,10.25
2018-03-15T03:43:49.103Z,10.55
2018-03-15T03:46:15.931Z,10.88
2018-03-15T03:48:42.763Z,10.70
2018-03-15T03:51:09.612Z,11.00
2018-03-15T03:53:36.483Z,11.25
2018-03-15T03:56:03.706Z,11.80
2018-03-15T03:58:30.638Z,10.93
2018-03-15T04:00:57.792Z,11.40
2018-03-15T04:03:24.937Z,11.40
2018-03-15T04:05:52.093Z,10.90
2018-03-15T04:08:18.947Z,10.55
2018-03-15T04:10:46.087Z,11.77
2018-03-15T04:13:13.242Z,11.20
2018-03-15T04:15:40.492Z,11.65
2018-03-15T04:18:07.368Z,12.02
2018-03-15T04:20:34.475Z,12.00
2018-03-15T04:23:01.627Z,10.93
2018-03-15T04:25:28.509Z,10.98
2018-03-15T04:27:55.372Z,12.23
2018-03-15T04:30:22.573Z,12.32
2018-03-15T04:32:49.417Z,11.90
2018-03-15T04:35:16.559Z,12.10
2018-03-15T04:37:43.408Z,12.20
2018-03-15T04:40:10.235Z,12.15
2018-03-15T04:42:37.100Z,11.55
2018-03-15T04:45:04.240Z,11.50
2018-03-15T04:47:31.097Z,12.30
2018-03-15T04:49:57.958Z,12.82
2018-03-15T04:52:24.824Z,13.07
2018-03-15T04:54:52.088Z,13.20
2018-03-15T04:57:18.950Z,13.70
2018-03-15T04:59:46.124Z,13.02
2018-03-15T05:02:12.979Z,13.25
2018-03-15T05:04:40.119Z,13.73
2018-03-15T05:07:06.964Z,14.05
2018-03-15T05:09:34.103Z,13.20
2018-03-15T05:12:00.960Z,15.30
2018-03-15T05:14:27.828Z,15.00
2018-03-15T05:16:54.712Z,14.70
2018-03-15T05:19:21.535Z,14.47
2018-03-15T05:21:48.367Z,15.40
2018-03-15T05:24:15.470Z,14.57
2018-03-15T05:26:42.809Z,14.63
2018-03-15T05:29:09.521Z,15.15
2018-03-15T05:31:36.380Z,15.00
2018-03-15T05:34:03.458Z,15.38
2018-03-15T05:36:30.607Z,15.00
2018-03-15T05:38:57.448Z,15.70
2018-03-15T05:41:24.312Z,14.60
2018-03-15T05:43:51.167Z,15.57
2018-03-15T05:46:18.010Z,15.73
2018-03-15T05:48:44.888Z,15.50
2018-03-15T05:51:11.981Z,15.60
2018-03-15T05:53:38.819Z,15.23
2018-03-15T05:56:05.692Z,15.68
2018-03-15T05:58:32.572Z,15.40
2018-03-15T06:00:59.440Z,16.08
2018-03-15T06:03:26.600Z,16.62
2018-03-15T06:05:53.755Z,17.35
2018-03-15T06:08:20.904Z,16.80
2018-03-15T06:10:47.745Z,17.23
2018-03-15T06:13:14.606Z,17.62
2018-03-15T06:15:41.520Z,17.80
2018-03-15T06:18:08.368Z,18.33
2018-03-15T06:20:35.194Z,18.20
2018-03-15T06:23:02.041Z,18.37
2018-03-15T06:25:29.220Z,18.10
2018-03-15T06:27:56.086Z,18.80
2018-03-15T06:30:22.926Z,19.10
2018-03-15T06:32:49.783Z,19.10
2018-03-15T06:35:17.001Z,18.93
2018-03-15T06:37:43.881Z,19.55
2018-03-15T06:40:10.987Z,19.98
2018-03-15T06:42:37.838Z,20.60
2018-03-15T06:45:04.686Z,20.25
2018-03-15T06:47:31.506Z,19.08
2018-03-15T06:49:58.376Z,20.50
2018-03-15T06:52:25.191Z,21.73
2018-03-15T06:54:52.355Z,21.42
2018-03-15T06:57:19.183Z,21.92
2018-03-15T06:59:46.051Z,21.27
2018-03-15T07:02:12.921Z,21.20
2018-03-15T07:04:39.775Z,21.37
2018-03-15T07:07:06.625Z,21.42
2018-03-15T07:09:33.828Z,20.35
2018-03-15T07:12:00.974Z,21.20
2018-03-15T07:14:27.851Z,19.92
2018-03-15T07:16:54.967Z,20.60
2018-03-15T07:19:21.811Z,20.58
2018-03-15T07:21:48.961Z,20.48
2018-03-15T07:24:15.812Z,20.95
2018-03-15T07:26:42.964Z,20.05
2018-03-15T07:29:09.815Z,20.35
2018-03-15T07:31:36.640Z,20.00
2018-03-15T07:34:03.792Z,20.88
2018-03-15T07:36:30.660Z,22.17
2018-03-15T07:38:57.787Z,20.60
2018-03-15T07:41:24.657Z,21.55
2018-03-15T07:43:51.488Z,21.27
2018-03-15T07:46:18.339Z,22.00
2018-03-15T07:48:45.190Z,22.60
2018-03-15T07:51:12.078Z,21.58
2018-03-15T07:53:38.895Z,22.70
2018-03-15T07:56:06.001Z,22.37
2018-03-15T07:58:32.857Z,23.15
2018-03-15T08:00:59.705Z,24.05
2018-03-15T08:03:26.539Z,22.90
2018-03-15T08:05:53.404Z,21.92
2018-03-15T08:08:20.252Z,22.92
2018-03-15T08:10:47.468Z,22.90
2018-03-15T08:13:14.330Z,21.40
2018-03-15T08:15:41.204Z,22.47
2018-03-15T08:18:08.312Z,21.65
2018-03-15T08:20:35.496Z,20.35
2018-03-15T08:23:02.343Z,21.45
2018-03-15T08:25:29.209Z,20.98
2018-03-15T08:27:56.288Z,19.67
2018-03-15T08:30:23.198Z,19.50
2018-03-15T08:32:50.031Z,18.65
2018-03-15T08:35:16.851Z,18.85
2018-03-15T08:37:43.712Z,19.75
2018-03-15T08:40:10.540Z,19.10
2018-03-15T08:42:37.424Z,18.27
2018-03-15T08:45:04.292Z,18.10
2018-03-15T08:47:31.135Z,17.55
2018-03-15T08:49:58.311Z,18.23
2018-03-15T08:52:25.642Z,16.65
2018-03-15T08:54:52.792Z,16.85
2018-03-15T08:57:19.691Z,16.65
2018-03-15T08:59:46.537Z,16.40
2018-03-15T09:02:13.450Z,15.63
2018-03-15T09:04:41.205Z,16.30
2018-03-15T09:07:07.576Z,15.50
2018-03-15T09:09:34.448Z,15.38
2018-03-15T09:12:01.320Z,15.70
2018-03-15T09:14:28.155Z,15.13
2018-03-15T09:16:55.300Z,14.20
2018-03-15T09:19:22.121Z,14.52
2018-03-15T09:21:48.995Z,15.25
2018-03-15T09:24:15.819Z,14.90
2018-03-15T09:26:42.653Z,14.90
2018-03-15T09:29:09.509Z,14.50
2018-03-15T09:31:36.672Z,14.10
2018-03-15T09:34:03.511Z,14.32
2018-03-15T09:36:30.339Z,14.10
2018-03-15T09:38:57.207Z,13.63
2018-03-15T09:41:24.051Z,13.88
2018-03-15T09:43:50.918Z,13.80
2018-03-15T09:46:17.816Z,13.60
2018-03-15T09:48:45.000Z,14.50
2018-03-15T09:51:12.164Z,13.90
2018-03-15T09:53:39.009Z,13.65
2018-03-15T09:56:05.885Z,13.07
2018-03-15T09:58:32.769Z,13.00
2018-03-15T10:00:59.828Z,13.70
2018-03-15T10:03:26.703Z,12.98
2018-03-15T10:05:53.584Z,13.40
2018-03-15T10:08:20.492Z,13.00
2018-03-15T10:10:47.591Z,13.20
2018-03-15T10:13:14.966Z,13.27
2018-03-15T10:15:41.894Z,13.80
2018-03-15T10:18:08.986Z,13.98
2018-03-15T10:20:35.831Z,14.07
2018-03-15T10:23:03.147Z,14.10
2018-03-15T10:25:30.029Z,14.80
2018-03-15T10:27:56.904Z,14.50
2018-03-15T10:30:23.771Z,13.32
2018-03-15T10:32:50.923Z,14.27
2018-03-15T10:35:17.767Z,13.20
2018-03-15T10:37:44.623Z,13.90
2018-03-15T10:40:11.675Z,14.60
2018-03-15T10:42:38.813Z,13.82
2018-03-15T10:45:05.956Z,13.75
2018-03-15T10:47:33.113Z,13.62
2018-03-15T10:49:59.970Z,13.65
2018-03-15T10:52:27.100Z,13.70
2018-03-15T10:54:53.965Z,13.70
2018-03-15T10:57:21.098Z,12.87
2018-03-15T10:59:47.972Z,13.52
2018-03-15T11:02:14.815Z,13.88
2018-03-15T11:04:41.687Z,14.10
2018-03-15T11:07:08.577Z,13.57
2018-03-15T11:09:35.434Z,12.63
2018-03-15T11:12:02.296Z,13.30
2018-03-15T11:14:29.179Z,13.18
2018-03-15T11:16:56.068Z,13.18
2018-03-15T11:19:23.197Z,13.32
2018-03-15T11:21:50.343Z,13.50
2018-03-15T11:24:17.256Z,12.85
2018-03-15T11:26:44.445Z,12.50
2018-03-15T11:29:11.311Z,12.65
2018-03-15T11:31:38.167Z,11.80
2018-03-15T11:34:05.279Z,12.30
2018-03-15T11:36:32.427Z,12.60
2018-03-15T11:38:59.309Z,11.90
2018-03-15T11:41:26.188Z,11.90
2018-03-15T11:43:53.073Z,11.93
2018-03-15T11:46:19.964Z,12.05
2018-03-15T11:48:46.834Z,12.60
2018-03-15T11:51:13.999Z,11.95
2018-03-15T11:53:40.854Z,11.60
2018-03-15T11:56:07.919Z,11.90
2018-03-15T11:58:34.836Z,11.25
2018-03-15T12:01:01.728Z,11.60
2018-03-15T12:03:28.608Z,10.77
2018-03-15T12:05:55.488Z,11.20
2018-03-15T12:08:22.625Z,10.80
2018-03-15T12:10:49.482Z,10.40
2018-03-15T12:13:16.343Z,11.50
2018-03-15T12:15:43.465Z,10.40
2018-03-15T12:18:10.418Z,10.00
2018-03-15T12:20:37.304Z,10.68
2018-03-15T12:23:04.412Z,10.80
2018-03-15T12:25:31.556Z,10.25
2018-03-15T12:27:58.378Z,10.48
2018-03-15T12:30:25.200Z,10.20
2018-03-15T12:32:52.048Z,11.10
2018-03-15T12:35:18.912Z,10.43
2018-03-15T12:37:46.072Z,10.10
2018-03-15T12:40:12.994Z,9.95
2018-03-15T12:42:39.791Z,10.20
2018-03-15T12:45:06.903Z,10.05
2018-03-15T12:47:34.575Z,10.65
2018-03-15T12:50:01.415Z,9.73
2018-03-15T12:52:28.284Z,10.68
2018-03-15T12:54:55.406Z,10.35
2018-03-15T12:57:22.252Z,9.85
2018-03-15T12:59:49.079Z,9.43
2018-03-15T13:02:15.898Z,8.90
2018-03-15T13:04:42.759Z,9.00
2018-03-15T13:07:09.637Z,9.00
2018-03-15T13:09:36.505Z,8.60
2018-03-15T13:12:03.611Z,9.00
2018-03-15T13:14:30.431Z,8.60
2018-03-15T13:16:57.301Z,8.35
2018-03-15T13:19:24.121Z,8.63
2018-03-15T13:21:50.951Z,8.65
2018-03-15T13:24:18.143Z,8.90
2018-03-15T13:26:45.002Z,8.65
2018-03-15T13:29:12.131Z,8.48
2018-03-15T13:31:38.980Z,8.75
2018-03-15T13:34:05.839Z,8.20
2018-03-15T13:36:32.963Z,8.57
2018-03-15T13:38:59.797Z,8.52
2018-03-15T13:41:26.663Z,7.85
2018-03-15T13:43:53.520Z,8.70
2018-03-15T13:46:20.649Z,8.50
2018-03-15T13:48:47.496Z,8.48
2018-03-15T13:51:14.640Z,8.00
2018-03-15T13:53:41.496Z,7.50
2018-03-15T13:56:08.313Z,7.20
2018-03-15T13:58:35.376Z,7.85
2018-03-15T14:01:02.435Z,7.30
2018-03-15T14:03:29.242Z,7.60
2018-03-15T14:05:56.080Z,7.50
2018-03-15T14:08:23.155Z,8.20
2018-03-15T14:10:50.020Z,8.10
2018-03-15T14:13:16.860Z,7.70
2018-03-15T14:15:43.721Z,7.80
2018-03-15T14:18:10.568Z,7.18
2018-03-15T14:20:37.685Z,7.75
2018-03-15T14:23:04.839Z,7.70
2018-03-15T14:25:31.896Z,8.18
2018-03-15T14:27:58.708Z,7.73
2018-03-15T14:30:25.558Z,7.80
2018-03-15T14:32:52.379Z,7.70
2018-03-15T14:35:19.203Z,7.25
2018-03-15T14:37:46.301Z,7.70
2018-03-15T14:40:13.155Z,7.22
2018-03-15T14:42:39.988Z,7.90
2018-03-15T14:45:06.833Z,7.20
2018-03-15T14:47:33.682Z,8.50
2018-03-15T14:50:00.511Z,7.90
2018-03-15T14:52:27.368Z,7.50
2018-03-15T14:54:54.506Z,6.70
2018-03-15T14:57:21.340Z,6.53
2018-03-15T14:59:48.184Z,6.70
2018-03-15T15:02:15.012Z,7.00
2018-03-15T15:04:41.840Z,7.40
2018-03-15T15:07:08.689Z,6.37
2018-03-15T15:09:35.771Z,6.40
2018-03-15T15:12:02.592Z,6.70
2018-03-15T15:14:29.825Z,6.40
2018-03-15T15:16:56.669Z,6.78
2018-03-15T15:19:23.520Z,6.40
2018-03-15T15:21:50.708Z,7.10
2018-03-15T15:24:17.852Z,6.70
2018-03-15T15:26:45.008Z,6.78
2018-03-15T15:29:11.839Z,6.83
2018-03-15T15:31:38.883Z,7.10
2018-03-15T15:34:05.698Z,6.90
2018-03-15T15:36:32.544Z,7.10
2018-03-15T15:38:59.632Z,6.90
2018-03-15T15:41:26.471Z,7.10
2018-03-15T15:43:53.289Z,6.50
2018-03-15T15:46:20.370Z,6.40
2018-03-15T15:48:47.179Z,6.85
2018-03-15T15:51:13.995Z,6.53
2018-03-15T15:53:41.150Z,6.97
2018-03-15T15:56:08.254Z,6.45
2018-03-15T15:58:35.087Z,6.30
2018-03-15T16:01:01.946Z,6.90
2018-03-15T16:03:29.094Z,6.97
2018-03-15T16:05:56.244Z,6.82
2018-03-15T16:08:23.392Z,7.37
2018-03-15T16:10:50.265Z,6.90
2018-03-15T16:13:17.071Z,6.93
2018-03-15T16:15:43.935Z,6.32
2018-03-15T16:18:11.070Z,6.50
2018-03-15T16:20:38.129Z,6.40
2018-03-15T16:23:04.990Z,6.53
2018-03-15T16:25:32.113Z,6.70
2018-03-15T16:27:58.919Z,6.68
2018-03-15T16:30:25.772Z,6.90
2018-03-15T16:32:52.746Z,6.40
2018-03-15T16:35:19.608Z,6.50
2018-03-15T16:37:46.456Z,6.80
2018-03-15T16:40:13.272Z,6.30
2018-03-15T16:42:40.128Z,6.32
2018-03-15T16:45:06.965Z,6.37
2018-03-15T16:47:34.107Z,6.75
2018-03-15T16:50:00.987Z,5.82
2018-03-15T16:52:28.100Z,5.90
2018-03-15T16:54:54.931Z,6.20
2018-03-15T16:57:21.785Z,5.70
2018-03-15T16:59:48.619Z,6.00
2018-03-15T17:02:15.439Z,5.78
2018-03-15T17:04:42.297Z,5.72
2018-03-15T17:07:09.376Z,6.20
2018-03-15T17:09:36.564Z,5.60
2018-03-15T17:12:03.665Z,5.82
2018-03-15T17:14:30.480Z,5.62
2018-03-15T17:16:57.367Z,5.07
2018-03-15T17:19:24.179Z,5.20
2018-03-15T17:21:51.032Z,5.28
2018-03-15T17:24:17.847Z,5.62
2018-03-15T17:26:45.037Z,5.40
2018-03-15T17:29:11.906Z,5.28
2018-03-15T17:31:38.773Z,5.53
2018-03-15T17:34:05.621Z,5.18
2018-03-15T17:36:32.827Z,4.80
2018-03-15T17:38:59.921Z,5.20
2018-03-15T17:41:26.785Z,4.95
2018-03-15T17:43:53.664Z,4.60
2018-03-15T17:46:20.804Z,4.62
2018-03-15T17:48:47.607Z,4.68
2018-03-15T17:51:14.697Z,4.60
2018-03-15T17:53:41.514Z,4.90
2018-03-15T17:56:08.375Z,4.60
2018-03-15T17:58:35.195Z,4.60
2018-03-15T18:01:02.269Z,4.60
2018-03-15T18:03:29.088Z,4.75
2018-03-15T18:05:55.888Z,4.95
2018-03-15T18:08:22.711Z,4.57
2018-03-15T18:10:49.531Z,4.60
2018-03-15T18:13:16.388Z,4.43
2018-03-15T18:15:43.274Z,4.40
2018-03-15T18:18:10.109Z,4.70
2018-03-15T18:20:36.931Z,4.90
2018-03-15T18:23:03.769Z,4.70
2018-03-15T18:25:30.577Z,4.87
2018-03-15T18:27:57.457Z,4.87
2018-03-15T18:30:24.282Z,4.67
2018-03-15T18:32:51.145Z,4.90
2018-03-15T18:35:18.005Z,4.70
2018-03-15T18:37:44.827Z,4.72
2018-03-15T18:40:11.645Z,4.80
2018-03-15T18:42:38.482Z,4.47
2018-03-15T18:45:05.320Z,4.90
2018-03-15T18:47:32.206Z,4.70
2018-03-15T18:49:59.008Z,4.57
2018-03-15T18:52:25.840Z,4.32
2018-03-15T18:54:52.698Z,4.70
2018-03-15T18:57:19.580Z,4.82
2018-03-15T18:59:47.329Z,4.80
2018-03-15T19:02:14.177Z,4.60
2018-03-15T19:04:41.315Z,5.00
2018-03-15T19:07:08.238Z,5.12
2018-03-15T19:09:35.311Z,4.20
2018-03-15T19:12:02.226Z,4.50
2018-03-15T19:14:29.087Z,5.10
2018-03-15T19:16:56.148Z,4.50
2018-03-15T19:19:22.970Z,7.45
2018-03-15T19:21:49.815Z,8.70
2018-03-15T19:24:16.880Z,4.60
2018-03-15T19:26:44.037Z,5.00
2018-03-15T19:29:11.047Z,4.60
2018-03-15T19:31:37.880Z,4.60
2018-03-15T19:34:04.971Z,4.60
2018-03-15T19:36:32.129Z,4.37
2018-03-15T19:38:59.384Z,4.82
2018-03-15T19:41:26.188Z,4.50
2018-03-15T19:43:53.374Z,4.40
2018-03-15T19:46:20.264Z,4.50
2018-03-15T19:48:47.115Z,4.80
2018-03-15T19:51:14.151Z,4.47
2018-03-15T19:53:41.043Z,4.55
2018-03-15T19:56:08.204Z,4.70
2018-03-15T19:58:35.352Z,4.20
2018-03-15T20:01:02.197Z,4.80
2018-03-15T20:03:29.047Z,4.60
2018-03-15T20:05:55.851Z,4.70
2018-03-15T20:08:22.709Z,4.30
2018-03-15T20:10:49.521Z,4.72
2018-03-15T20:13:16.348Z,5.00
2018-03-15T20:15:43.209Z,5.22
2018-03-15T20:18:10.081Z,4.70
2018-03-15T20:20:37.255Z,4.90
2018-03-15T20:23:04.070Z,5.60
2018-03-15T20:25:31.244Z,4.70
2018-03-15T20:27:58.088Z,5.67
2018-03-15T20:30:24.936Z,5.20
2018-03-15T20:32:51.747Z,5.00
2018-03-15T20:35:18.571Z,4.95
2018-03-15T20:37:45.379Z,5.40
2018-03-15T20:40:12.480Z,5.22
2018-03-15T20:42:39.324Z,4.80
2018-03-15T20:45:06.501Z,5.50
2018-03-15T20:47:33.337Z,5.32
2018-03-15T20:50:00.491Z,5.30
2018-03-15T20:52:27.341Z,5.30
2018-03-15T20:54:54.203Z,5.35
2018-03-15T20:57:21.086Z,6.00
2018-03-15T20:59:48.180Z,5.35
2018-03-15T21:02:15.041Z,5.90
2018-03-15T21:04:41.909Z,5.78
2018-03-15T21:07:08.761Z,5.43
2018-03-15T21:09:35.635Z,5.70
2018-03-15T21:12:02.801Z,5.60
2018-03-15T21:14:29.620Z,5.50
2018-03-15T21:16:56.686Z,6.30
2018-03-15T21:19:23.514Z,5.95
2018-03-15T21:21:50.367Z,6.20
2018-03-15T21:24:17.208Z,5.68
2018-03-15T21:26:44.027Z,5.50
2018-03-15T21:29:10.843Z,5.45
2018-03-15T21:31:37.664Z,5.40
2018-03-15T21:34:04.479Z,5.50
2018-03-15T21:36:31.636Z,5.80
2018-03-15T21:38:58.489Z,5.60
2018-03-15T21:41:25.370Z,5.80
2018-03-15T21:43:52.221Z,5.60
2018-03-15T21:46:19.090Z,6.10
2018-03-15T21:48:45.936Z,5.50
2018-03-15T21:51:12.763Z,6.30
2018-03-15T21:53:39.571Z,5.82
2018-03-15T21:56:06.698Z,6.72
2018-03-15T21:58:33.512Z,6.10
2018-03-15T22:01:00.332Z,6.60
2018-03-15T22:03:27.189Z,5.80
2018-03-15T22:05:54.011Z,6.15
2018-03-15T22:08:20.823Z,6.00
2018-03-15T22:10:47.651Z,6.78
2018-03-15T22:13:14.795Z,6.15
2018-03-15T22:15:41.615Z,5.70
2018-03-15T22:18:08.424Z,6.18
2018-03-15T22:20:35.276Z,6.30
2018-03-15T22:23:02.371Z,5.75
2018-03-15T22:25:29.205Z,6.47
2018-03-15T22:27:56.042Z,5.90
2018-03-15T22:30:22.898Z,6.22
2018-03-15T22:32:49.715Z,6.47
2018-03-15T22:35:16.596Z,6.00
2018-03-15T22:37:43.408Z,6.00
2018-03-15T22:40:10.584Z,6.80
2018-03-15T22:42:37.435Z,6.20
2018-03-15T22:45:04.580Z,6.20
2018-03-15T22:47:31.483Z,6.60
2018-03-15T22:49:58.576Z,6.00
2018-03-15T22:52:25.402Z,6.62
2018-03-15T22:54:52.293Z,6.95
2018-03-15T22:57:19.177Z,6.60
2018-03-15T22:59:46.256Z,6.80
2018-03-15T23:02:13.099Z,7.10
2018-03-15T23:04:40.253Z,7.40
2018-03-15T23:07:07.391Z,6.90
2018-03-15T23:09:34.212Z,7.27
2018-03-15T23:12:01.080Z,7.35
2018-03-15T23:14:27.921Z,7.37
2018-03-15T23:16:55.091Z,6.90
2018-03-15T23:19:21.912Z,7.50
2018-03-15T23:21:49.069Z,7.73
2018-03-15T23:24:15.917Z,7.80
2018-03-15T23:26:43.066Z,7.60
2018-03-15T23:29:09.891Z,7.70
2018-03-15T23:31:36.738Z,8.00
2018-03-15T23:34:03.580Z,7.57
2018-03-15T23:36:30.433Z,7.55
2018-03-15T23:38:57.272Z,8.30
2018-03-15T23:41:24.102Z,7.70
2018-03-15T23:43:50.946Z,8.25
2018-03-15T23:46:17.792Z,8.40
2018-03-15T23:48:44.660Z,7.78
2018-03-15T23:51:11.799Z,8.30
2018-03-15T23:53:38.664Z,8.00
2018-03-15T23:56:05.504Z,8.50
2018-03-15T23:58:32.352Z,8.48
